Time;durP1;ratioP1;P1;durP2;ratioP2;P2;SDS_P1;SDS_P2;PMS_P1;PMS_P2;Temp;Humidity;BMP_temperature;BMP_pressure;BME280_temperature;BME280_humidity;BME280_pressure;Samples;Min_cycle;Max_cycle;Signal;HPM_P1;HPM_P2
2022/03/21 00:01:42;;;;;;;99.40;56.60;;;;;;;-0.58;100.00;103049.22;5093522;28;20039;-77
2022/03/21 00:04:08;;;;;;;101.32;56.63;;;;;;;-0.54;100.00;103037.84;5093552;28;20044;-77
2022/03/21 00:06:34;;;;;;;118.78;63.17;;;;;;;-0.50;100.00;103041.28;5093893;28;20032;-77
2022/03/21 00:08:59;;;;;;;104.20;58.03;;;;;;;-0.51;100.00;103047.41;5093270;28;20035;-77
2022/03/21 00:11:25;;;;;;;92.57;53.33;;;;;;;-0.52;100.00;103055.25;5093552;28;20036;-77
2022/03/21 00:13:53;;;;;;;91.18;53.85;;;;;;;-0.60;100.00;103053.59;5094156;28;20409;-77
2022/03/21 00:16:19;;;;;;;86.75;49.75;;;;;;;-0.67;100.00;103048.41;5093408;28;20092;-76
2022/03/21 00:18:45;;;;;;;87.90;51.42;;;;;;;-0.78;100.00;103057.19;5093190;28;20472;-77
2022/03/21 00:21:10;;;;;;;85.38;49.13;;;;;;;-0.85;99.95;103063.38;5093373;28;20028;-77
2022/03/21 00:23:36;;;;;;;86.57;53.63;;;;;;;-0.94;99.64;103059.06;5093061;28;20032;-76
2022/03/21 00:26:05;;;;;;;90.68;52.53;;;;;;;-1.03;99.19;103058.25;5093330;28;20031;-77
2022/03/21 00:28:31;;;;;;;82.40;49.03;;;;;;;-1.14;99.26;103053.97;5074584;28;20123;-78
2022/03/21 00:30:56;;;;;;;83.03;48.72;;;;;;;-1.20;98.88;103055.75;5058432;28;20067;-76
2022/03/21 00:33:22;;;;;;;83.45;47.60;;;;;;;-1.27;98.36;103058.41;5075421;28;20039;-76
2022/03/21 00:35:50;;;;;;;124.88;63.72;;;;;;;-1.28;98.20;103061.88;5093159;28;20055;-77
2022/03/21 00:38:17;;;;;;;102.00;54.45;;;;;;;-1.29;99.31;103054.91;5093343;28;20028;-77
2022/03/21 00:40:46;;;;;;;85.47;49.42;;;;;;;-1.34;99.52;103061.06;5093052;28;20039;-75
2022/03/21 00:43:18;;;;;;;96.90;53.05;;;;;;;-1.40;99.34;103061.06;5092745;28;20119;-76
2022/03/21 00:45:46;;;;;;;103.30;55.38;;;;;;;-1.44;99.50;103055.84;5093350;28;20031;-76
2022/03/21 00:48:12;;;;;;;94.90;51.92;;;;;;;-1.47;99.84;103053.25;5093322;28;20028;-75
2022/03/21 00:50:38;;;;;;;91.57;48.75;;;;;;;-1.51;99.45;103059.38;5075442;28;20032;-77
2022/03/21 00:53:04;;;;;;;81.57;46.55;;;;;;;-1.58;99.47;103054.19;5092935;28;20032;-76
2022/03/21 00:55:32;;;;;;;82.82;48.60;;;;;;;-1.64;98.79;103058.56;5092698;28;20472;-77
2022/03/21 00:57:58;;;;;;;80.65;47.60;;;;;;;-1.68;98.94;103056.84;5092572;28;20425;-76
2022/03/21 01:00:27;;;;;;;90.18;53.03;;;;;;;-1.72;98.43;103055.09;5092881;28;20028;-76
2022/03/21 01:02:54;;;;;;;77.60;45.50;;;;;;;-1.79;98.07;103063.84;5092387;28;20028;-78
2022/03/21 01:05:20;;;;;;;97.05;53.70;;;;;;;-1.82;98.11;103075.16;5093363;28;20138;-78
2022/03/21 01:07:46;;;;;;;83.50;46.55;;;;;;;-1.85;97.87;103075.19;5092913;28;20040;-78
2022/03/21 01:10:14;;;;;;;78.82;46.53;;;;;;;-1.88;98.18;103074.28;5092843;28;20376;-77
2022/03/21 01:12:43;;;;;;;81.70;47.17;;;;;;;-1.91;97.96;103061.25;5092369;28;20044;-78
2022/03/21 01:15:10;;;;;;;80.88;47.35;;;;;;;-1.95;97.75;103063.03;5097336;28;20024;-77
2022/03/21 01:17:36;;;;;;;80.28;46.03;;;;;;;-1.97;97.91;103067.34;5078841;28;20074;-77
2022/03/21 01:20:03;;;;;;;87.47;48.78;;;;;;;-1.99;98.35;103063.88;5096875;28;20407;-77
2022/03/21 01:22:28;;;;;;;85.50;48.25;;;;;;;-2.00;98.33;103067.34;5096863;28;20055;-77
2022/03/21 01:24:53;;;;;;;80.00;47.47;;;;;;;-2.05;98.18;103067.38;5096804;28;20468;-78
2022/03/21 01:27:19;;;;;;;92.65;51.88;;;;;;;-2.07;98.31;103073.50;5096774;28;20100;-77
2022/03/21 01:29:47;;;;;;;85.82;48.78;;;;;;;-2.11;97.99;103070.00;5096702;28;20024;-78
2022/03/21 01:32:12;;;;;;;83.30;47.50;;;;;;;-2.13;97.75;103074.38;5096662;28;20086;-77
2022/03/21 01:34:37;;;;;;;87.32;50.67;;;;;;;-2.13;98.03;103077.81;5096951;28;20468;-77
2022/03/21 01:37:03;;;;;;;90.53;51.33;;;;;;;-2.13;98.67;103075.22;5096488;28;20429;-77
2022/03/21 01:39:29;;;;;;;87.22;49.08;;;;;;;-2.13;98.71;103079.59;5096561;28;20036;-77
2022/03/21 01:41:54;;;;;;;92.32;52.63;;;;;;;-2.13;99.16;103083.03;5078457;28;20457;-77
2022/03/21 01:44:20;;;;;;;87.25;47.22;;;;;;;-2.16;99.48;103080.44;5096816;28;20050;-77
2022/03/21 01:46:46;;;;;;;84.40;48.55;;;;;;;-2.19;99.20;103077.84;5096307;28;20062;-77
2022/03/21 01:49:13;;;;;;;90.95;50.45;;;;;;;-2.17;99.65;103085.66;5096121;28;20024;-77
2022/03/21 01:51:41;;;;;;;92.20;51.67;;;;;;;-2.18;99.38;103081.31;5078005;28;20039;-77
2022/03/21 01:56:52;;;;;;;90.40;49.92;;;;;;;-2.21;99.57;103081.31;5096143;28;20119;-78
2022/03/21 01:59:19;;;;;;;102.07;53.55;;;;;;;-2.21;99.63;103081.31;5096148;28;20032;-77
2022/03/21 02:01:45;;;;;;;91.95;49.63;;;;;;;-2.23;99.65;103070.03;5096090;28;20024;-78
2022/03/21 02:04:11;;;;;;;83.82;47.53;;;;;;;-2.27;99.77;103082.19;5096017;28;20162;-76
2022/03/21 02:06:38;;;;;;;86.78;48.50;;;;;;;-2.30;99.42;103079.56;5095425;28;20059;-76
2022/03/21 02:09:09;;;;;;;83.40;49.20;;;;;;;-2.34;98.86;103086.53;5095619;28;20024;-77
2022/03/21 02:11:37;;;;;;;88.90;48.05;;;;;;;-2.34;98.70;103090.91;5095711;28;20116;-77
2022/03/21 02:14:04;;;;;;;82.40;46.88;;;;;;;-2.35;98.66;103087.41;5095607;28;20028;-78
2022/03/21 02:16:31;;;;;;;75.72;45.83;;;;;;;-2.37;99.00;103088.31;5095875;28;20089;-78
2022/03/21 02:19:14;;;;;;;84.82;49.05;;;;;;;-2.39;98.40;103085.69;5095664;28;20032;-78
2022/03/21 02:22:04;;;;;;;88.57;49.97;;;;;;;-2.41;98.65;103078.72;5095459;28;20032;-78
2022/03/21 02:24:56;;;;;;;87.05;48.42;;;;;;;-2.45;98.64;103090.03;5095650;28;20039;-78
2022/03/21 02:27:25;;;;;;;91.75;48.78;;;;;;;-2.46;98.17;103088.28;5095870;28;20031;-78
2022/03/21 02:29:51;;;;;;;83.80;47.65;;;;;;;-2.49;98.31;103092.63;5095479;28;20028;-78
2022/03/21 02:32:18;;;;;;;80.85;46.65;;;;;;;-2.51;98.47;103093.50;5095548;28;20036;-78
2022/03/21 02:34:45;;;;;;;79.60;45.35;;;;;;;-2.54;97.95;103085.69;5077240;28;20024;-77
2022/03/21 02:37:15;;;;;;;74.28;44.30;;;;;;;-2.55;97.75;103086.56;5095515;28;20183;-77
2022/03/21 02:39:42;;;;;;;76.43;45.53;;;;;;;-2.55;97.74;103094.38;5095617;28;20101;-77
2022/03/21 02:42:08;;;;;;;92.47;50.08;;;;;;;-2.52;97.81;103094.38;5095153;28;20031;-77
2022/03/21 02:44:37;;;;;;;94.70;50.63;;;;;;;-2.53;98.51;103090.88;5095601;28;20063;-78
2022/03/21 02:47:04;;;;;;;80.30;45.42;;;;;;;-2.53;98.70;103093.50;5095239;28;20059;-78
2022/03/21 02:49:30;;;;;;;75.50;43.03;;;;;;;-2.55;98.74;103100.47;5095348;28;20028;-77
2022/03/21 02:51:57;;;;;;;77.63;45.80;;;;;;;-2.59;98.38;103095.25;5076974;28;20512;-78
2022/03/21 02:54:23;;;;;;;75.00;43.72;;;;;;;-2.62;98.02;103096.09;5076832;28;20028;-77
2022/03/21 02:56:49;;;;;;;80.97;45.08;;;;;;;-2.61;97.20;103096.97;5094993;28;20084;-78
2022/03/21 02:59:18;;;;;;;77.35;45.47;;;;;;;-2.65;97.27;103098.72;5076771;28;20031;-78
2022/03/21 03:01:45;;;;;;;74.07;44.85;;;;;;;-2.66;97.21;103094.34;5095027;28;20435;-77
2022/03/21 03:04:10;;;;;;;78.68;43.20;;;;;;;-2.68;97.22;103096.97;5086737;28;20076;-77
2022/03/21 03:06:39;;;;;;;76.82;43.70;;;;;;;-2.70;97.47;103093.50;5075159;28;20377;-77
2022/03/21 03:09:06;;;;;;;74.60;45.60;;;;;;;-2.73;97.37;103097.81;5056898;28;20032;-78
2022/03/21 03:11:31;;;;;;;83.88;43.95;;;;;;;-2.74;98.25;103096.09;5074588;28;20025;-77
2022/03/21 03:13:57;;;;;;;87.50;46.55;;;;;;;-2.78;98.33;103096.97;5074722;28;20086;-77
2022/03/21 03:16:22;;;;;;;82.95;47.30;;;;;;;-2.80;98.79;103101.31;5075122;28;20432;-77
2022/03/21 03:18:47;;;;;;;75.07;42.90;;;;;;;-2.82;99.40;103098.69;5074483;28;20032;-77
2022/03/21 03:21:19;;;;;;;77.13;43.80;;;;;;;-2.82;99.95;103096.09;5056317;28;20111;-77
2022/03/21 03:23:46;;;;;;;76.72;43.65;;;;;;;-2.84;99.95;103097.81;5040901;28;20127;-77
2022/03/21 03:26:11;;;;;;;87.03;47.63;;;;;;;-2.85;100.00;103099.56;5074442;28;20033;-78
2022/03/21 03:28:38;;;;;;;99.95;51.42;;;;;;;-2.85;100.00;103098.69;5073978;28;20120;-77
2022/03/21 03:31:04;;;;;;;90.40;48.65;;;;;;;-2.86;100.00;103094.34;5074333;28;20039;-77
2022/03/21 03:33:30;;;;;;;95.75;51.38;;;;;;;-2.87;100.00;103103.00;5055872;28;20123;-77
2022/03/21 03:35:56;;;;;;;97.72;50.72;;;;;;;-2.91;100.00;103096.06;5073399;28;20054;-78
2022/03/21 03:38:21;;;;;;;99.00;52.50;;;;;;;-2.93;100.00;103097.78;5073942;28;20520;-77
2022/03/21 03:40:47;;;;;;;98.97;52.40;;;;;;;-2.94;100.00;103109.06;5056172;28;20033;-77
2022/03/21 03:43:15;;;;;;;89.38;47.65;;;;;;;-2.98;100.00;103105.59;5073470;28;20032;-78
2022/03/21 03:45:42;;;;;;;105.45;53.03;;;;;;;-2.99;100.00;103105.59;5055949;28;20090;-78
2022/03/21 03:48:07;;;;;;;93.28;48.13;;;;;;;-3.02;100.00;103111.66;5055958;28;20028;-79
2022/03/21 03:50:33;;;;;;;101.82;51.10;;;;;;;-3.03;100.00;103109.91;5056270;28;20119;-78
2022/03/21 03:52:58;;;;;;;95.88;50.40;;;;;;;-3.04;100.00;103108.19;5073715;28;20032;-79
2022/03/21 03:55:23;;;;;;;98.65;50.22;;;;;;;-3.05;100.00;103114.25;5056437;28;20028;-78
2022/03/21 03:57:49;;;;;;;116.13;56.17;;;;;;;-3.08;100.00;103112.50;5073551;28;20032;-77
2022/03/21 04:00:16;;;;;;;92.57;49.08;;;;;;;-3.11;100.00;103115.09;5073412;28;20037;-77
2022/03/21 04:05:27;;;;;;;92.22;47.95;;;;;;;-3.12;100.00;103125.53;5073830;28;20055;-77
2022/03/21 04:07:54;;;;;;;100.93;50.63;;;;;;;-3.14;100.00;103125.53;5073306;28;20024;-76
2022/03/21 04:10:22;;;;;;;102.57;51.58;;;;;;;-3.13;100.00;103122.06;5054999;28;20027;-77
2022/03/21 04:12:51;;;;;;;105.35;51.30;;;;;;;-3.13;100.00;103118.59;5055137;28;20465;-77
2022/03/21 04:15:18;;;;;;;131.52;60.15;;;;;;;-3.13;100.00;103123.81;5073170;28;20028;-77
2022/03/21 04:17:43;;;;;;;114.80;54.45;;;;;;;-3.15;100.00;103129.00;5072766;28;20040;-77
2022/03/21 04:20:10;;;;;;;125.35;59.13;;;;;;;-3.16;100.00;103114.25;5072976;28;20024;-77
2022/03/21 04:22:35;;;;;;;104.50;53.63;;;;;;;-3.18;100.00;103118.56;5073265;28;20033;-78
2022/03/21 04:25:03;;;;;;;112.72;55.35;;;;;;;-3.21;100.00;103123.75;5072840;28;20044;-77
2022/03/21 04:27:28;;;;;;;109.00;52.95;;;;;;;-3.23;100.00;103121.13;5072938;28;20090;-78
2022/03/21 04:29:54;;;;;;;112.82;56.88;;;;;;;-3.22;100.00;103122.03;5073119;28;20040;-77
2022/03/21 04:32:19;;;;;;;110.93;54.80;;;;;;;-3.22;100.00;103128.09;5072763;28;20100;-78
2022/03/21 04:34:44;;;;;;;92.55;49.92;;;;;;;-3.25;100.00;103120.28;5073256;28;20044;-78
2022/03/21 04:37:10;;;;;;;95.60;48.63;;;;;;;-3.25;100.00;103125.50;5055025;28;20032;-77
2022/03/21 04:39:35;;;;;;;102.85;51.88;;;;;;;-3.23;100.00;103126.34;5054793;28;20056;-78
2022/03/21 04:42:01;;;;;;;111.55;52.72;;;;;;;-3.25;100.00;103122.03;5072588;28;20423;-78
2022/03/21 04:44:26;;;;;;;104.82;52.50;;;;;;;-3.25;100.00;103132.44;5055108;28;20032;-77
2022/03/21 04:46:52;;;;;;;120.93;56.47;;;;;;;-3.25;100.00;103129.84;5072590;28;20032;-78
2022/03/21 04:49:17;;;;;;;94.55;50.00;;;;;;;-3.26;100.00;103135.91;5072768;28;20056;-78
2022/03/21 04:51:43;;;;;;;99.60;49.75;;;;;;;-3.29;100.00;103141.09;5072591;28;20068;-78
2022/03/21 04:54:08;;;;;;;114.78;54.08;;;;;;;-3.32;100.00;103141.94;5072490;28;20036;-78
2022/03/21 04:56:33;;;;;;;103.90;51.90;;;;;;;-3.35;100.00;103136.72;5072401;28;20135;-78
2022/03/21 04:58:59;;;;;;;105.25;50.20;;;;;;;-3.37;100.00;103138.47;5072773;28;20398;-78
2022/03/21 05:01:24;;;;;;;90.60;47.42;;;;;;;-3.40;100.00;103144.53;5054802;28;20032;-78
2022/03/21 05:03:50;;;;;;;88.68;47.85;;;;;;;-3.43;100.00;103152.31;5072389;28;20057;-78
2022/03/21 05:06:16;;;;;;;85.32;46.35;;;;;;;-3.43;100.00;103156.66;5073082;28;20033;-78
2022/03/21 05:08:42;;;;;;;85.85;46.38;;;;;;;-3.46;100.00;103149.69;5073309;28;20033;-78
2022/03/21 05:11:08;;;;;;;102.07;51.55;;;;;;;-3.46;100.00;103154.00;5054534;28;20490;-78
2022/03/21 05:13:33;;;;;;;103.95;50.92;;;;;;;-3.45;100.00;103150.56;5072623;28;20174;-79
2022/03/21 05:15:59;;;;;;;110.63;52.95;;;;;;;-3.41;100.00;103152.31;5072780;28;20040;-79
2022/03/21 05:18:24;;;;;;;123.95;58.05;;;;;;;-3.39;100.00;103151.47;5072893;28;20118;-77
2022/03/21 05:20:50;;;;;;;104.13;52.65;;;;;;;-3.38;100.00;103144.53;5072216;28;20032;-78
2022/03/21 05:31:30;;;;;;;92.45;47.13;;;;;;;-3.41;100.00;103157.53;5072678;28;20146;-78
2022/03/21 05:36:39;;;;;;;107.03;51.45;;;;;;;-3.43;100.00;103157.53;5072326;28;20453;-78
2022/03/21 05:39:05;;;;;;;101.07;50.75;;;;;;;-3.41;100.00;103165.34;5072174;28;20112;-77
2022/03/21 05:41:30;;;;;;;103.53;53.83;;;;;;;-3.40;100.00;103165.34;5072254;28;20093;-78
2022/03/21 05:43:55;;;;;;;113.78;54.53;;;;;;;-3.38;100.00;103165.34;5072181;28;20111;-78
2022/03/21 05:46:22;;;;;;;109.85;52.15;;;;;;;-3.37;100.00;103170.56;5071821;28;20025;-78
2022/03/21 05:48:59;;;;;;;103.20;51.38;;;;;;;-3.35;100.00;103170.56;5072196;28;20061;-77
2022/03/21 05:51:30;;;;;;;104.60;52.92;;;;;;;-3.33;100.00;103173.19;5056200;28;20157;-78
2022/03/21 05:53:57;;;;;;;95.60;49.63;;;;;;;-3.33;100.00;103174.03;5072293;28;20036;-78
2022/03/21 05:56:25;;;;;;;96.00;51.25;;;;;;;-3.31;100.00;103177.53;5071634;28;20044;-78
2022/03/21 05:58:52;;;;;;;104.82;53.10;;;;;;;-3.30;100.00;103173.19;5073384;28;20033;-78
2022/03/21 06:01:22;;;;;;;105.60;53.08;;;;;;;-3.27;100.00;103184.50;5058151;28;20039;-77
2022/03/21 06:03:52;;;;;;;110.38;54.85;;;;;;;-3.23;100.00;103183.63;5075827;28;20036;-77
2022/03/21 06:06:18;;;;;;;111.88;53.35;;;;;;;-3.14;100.00;103189.78;5076452;28;20027;-77
2022/03/21 06:08:44;;;;;;;110.90;55.72;;;;;;;-3.09;100.00;103185.44;5057792;28;20366;-78
2022/03/21 06:11:09;;;;;;;160.40;65.70;;;;;;;-3.04;100.00;103181.13;5075632;28;20047;-78
2022/03/21 06:13:39;;;;;;;119.32;58.25;;;;;;;-2.97;100.00;103190.72;5076272;28;20063;-77
2022/03/21 06:16:06;;;;;;;116.70;54.90;;;;;;;-2.93;100.00;103188.97;5076361;28;20029;-79
2022/03/21 06:18:32;;;;;;;121.45;57.42;;;;;;;-2.90;100.00;103186.38;5075291;28;20036;-78
2022/03/21 06:21:03;;;;;;;129.15;58.97;;;;;;;-2.85;100.00;103197.72;5075303;28;20055;-78
2022/03/21 06:23:28;;;;;;;108.07;53.85;;;;;;;-2.80;100.00;103201.19;5075301;28;20055;-78
2022/03/21 06:25:56;;;;;;;109.28;55.95;;;;;;;-2.74;100.00;103200.34;5075486;28;20033;-78
2022/03/21 06:28:22;;;;;;;114.18;56.40;;;;;;;-2.69;100.00;103199.50;5075247;28;20033;-78
2022/03/21 06:30:50;;;;;;;110.95;55.35;;;;;;;-2.60;100.00;103202.97;5075494;28;20028;-77
2022/03/21 06:33:16;;;;;;;129.15;58.50;;;;;;;-2.53;100.00;103205.59;5075817;28;20040;-78
2022/03/21 06:35:43;;;;;;;117.93;58.10;;;;;;;-2.44;100.00;103209.97;5074862;28;20388;-78
2022/03/21 06:38:10;;;;;;;115.57;56.13;;;;;;;-2.36;100.00;103209.97;5075227;28;20119;-78
2022/03/21 06:40:36;;;;;;;119.28;57.00;;;;;;;-2.29;100.00;103197.84;5075267;28;20032;-78
2022/03/21 06:43:02;;;;;;;114.38;55.03;;;;;;;-2.20;100.00;103209.13;5057493;28;20036;-78
2022/03/21 06:45:28;;;;;;;110.35;53.83;;;;;;;-2.10;100.00;103211.75;5057236;28;20028;-78
2022/03/21 06:47:53;;;;;;;142.93;62.30;;;;;;;-2.01;100.00;103212.63;5074639;28;20388;-77
2022/03/21 06:50:19;;;;;;;119.90;57.67;;;;;;;-1.90;100.00;103210.00;5040233;28;20036;-78
2022/03/21 06:52:47;;;;;;;129.15;63.33;;;;;;;-1.78;100.00;103211.72;5074468;28;20060;-78
2022/03/21 06:55:12;;;;;;;137.15;62.22;;;;;;;-1.65;100.00;103215.22;5074566;28;20067;-78
2022/03/21 06:57:39;;;;;;;138.52;63.38;;;;;;;-1.51;100.00;103216.03;5075234;28;20111;-78
2022/03/21 07:00:06;;;;;;;149.73;67.07;;;;;;;-1.38;100.00;103221.25;5074818;28;20036;-78
2022/03/21 07:02:32;;;;;;;162.93;69.57;;;;;;;-1.25;100.00;103234.28;5074296;28;20067;-79
2022/03/21 07:04:58;;;;;;;170.73;70.18;;;;;;;-1.12;100.00;103223.78;5074653;28;20106;-77
2022/03/21 07:07:24;;;;;;;159.27;70.38;;;;;;;-0.98;100.00;103228.97;5074494;28;20040;-78
2022/03/21 07:09:49;;;;;;;153.68;69.72;;;;;;;-0.85;100.00;103225.44;5057379;28;20097;-78
2022/03/21 07:12:19;;;;;;;158.20;68.10;;;;;;;-0.72;100.00;103229.75;5073579;28;20461;-77
2022/03/21 07:14:46;;;;;;;160.82;69.30;;;;;;;-0.58;100.00;103227.03;5075161;28;20123;-77
2022/03/21 07:17:11;;;;;;;150.52;68.13;;;;;;;-0.41;100.00;103233.94;5074956;28;20086;-77
2022/03/21 07:19:37;;;;;;;144.52;65.05;;;;;;;-0.25;100.00;103238.19;5074413;28;20062;-77
2022/03/21 07:22:06;;;;;;;144.88;63.55;;;;;;;-0.08;100.00;103231.97;5074450;28;20178;-77
2022/03/21 07:24:32;;;;;;;145.32;68.65;;;;;;;0.12;100.00;103240.53;5056787;28;20032;-78
2022/03/21 07:26:57;;;;;;;146.23;70.63;;;;;;;0.31;100.00;103232.50;5056233;28;20044;-77
2022/03/21 07:29:23;;;;;;;145.32;68.75;;;;;;;0.49;100.00;103242.81;5074417;28;20039;-78
2022/03/21 07:31:48;;;;;;;148.57;69.50;;;;;;;0.66;100.00;103245.25;5074149;28;20032;-76
2022/03/21 07:34:14;;;;;;;144.23;69.47;;;;;;;0.83;100.00;103249.44;5056186;28;20478;-77
2022/03/21 07:36:39;;;;;;;143.50;69.72;;;;;;;1.01;100.00;103246.59;5074247;28;20175;-77
2022/03/21 07:39:05;;;;;;;144.27;65.35;;;;;;;1.20;100.00;103252.50;5074064;28;20113;-77
2022/03/21 07:41:30;;;;;;;156.30;72.18;;;;;;;1.39;100.00;103247.03;5073799;28;20054;-78
2022/03/21 07:43:57;;;;;;;148.93;74.13;;;;;;;1.57;100.00;103248.53;5074312;28;20036;-78
2022/03/21 07:49:08;;;;;;;131.57;68.25;;;;;;;2.03;100.00;103249.56;5075091;28;20067;-78
2022/03/21 07:51:33;;;;;;;143.68;72.82;;;;;;;2.27;100.00;103249.19;5073568;28;20096;-77
2022/03/21 07:53:58;;;;;;;127.97;69.40;;;;;;;2.48;100.00;103252.34;5073905;28;20473;-78
2022/03/21 07:56:25;;;;;;;135.98;69.63;;;;;;;2.74;100.00;103250.97;5074259;28;20362;-79
2022/03/21 07:58:51;;;;;;;114.13;66.50;;;;;;;3.08;100.00;103255.59;5073744;28;20025;-78
2022/03/21 08:01:17;;;;;;;99.13;59.67;;;;;;;3.45;100.00;103253.03;5074568;28;20051;-79
2022/03/21 08:03:43;;;;;;;87.68;55.20;;;;;;;3.81;100.00;103254.88;5073653;28;20056;-78
2022/03/21 08:06:10;;;;;;;84.85;53.70;;;;;;;4.16;99.75;103253.16;5073020;28;20087;-79
2022/03/21 08:08:38;;;;;;;74.50;48.90;;;;;;;4.72;93.69;103253.44;5073921;28;20040;-79
2022/03/21 08:11:05;;;;;;;72.85;48.35;;;;;;;5.48;88.86;103256.56;5073357;28;20095;-79
2022/03/21 08:13:31;;;;;;;71.35;46.67;;;;;;;6.15;85.95;103257.97;5073421;28;20090;-79
2022/03/21 08:15:57;;;;;;;67.43;44.55;;;;;;;6.47;80.41;103253.41;5073583;28;20109;-79
2022/03/21 08:18:22;;;;;;;61.13;42.88;;;;;;;6.72;80.71;103253.41;5055431;28;20078;-79
2022/03/21 08:20:48;;;;;;;65.65;43.60;;;;;;;6.79;80.19;103257.56;5073144;28;20028;-79
2022/03/21 08:23:14;;;;;;;60.70;42.72;;;;;;;6.78;78.99;103258.47;5073166;28;20043;-79
2022/03/21 08:25:42;;;;;;;58.22;39.95;;;;;;;6.69;75.82;103259.66;5073166;28;20432;-79
2022/03/21 08:28:11;;;;;;;57.45;39.25;;;;;;;6.75;76.79;103262.97;5072966;28;20472;-79
2022/03/21 08:30:38;;;;;;;53.85;38.75;;;;;;;6.86;76.15;103260.84;5073310;28;20484;-79
2022/03/21 08:33:08;;;;;;;55.90;38.17;;;;;;;7.02;77.40;103261.16;5073279;28;20059;-76
2022/03/21 08:35:37;;;;;;;57.30;37.53;;;;;;;7.23;75.23;103267.41;5072978;28;20036;-78
2022/03/21 08:38:05;;;;;;;55.83;38.72;;;;;;;7.45;74.70;103258.63;5073010;28;20111;-78
2022/03/21 08:40:30;;;;;;;57.95;38.67;;;;;;;7.69;72.29;103260.34;5054768;28;20032;-78
2022/03/21 08:42:56;;;;;;;56.15;38.95;;;;;;;8.17;73.63;103258.41;5073046;28;20032;-77
2022/03/21 08:45:22;;;;;;;48.30;36.70;;;;;;;8.72;68.96;103256.97;5072541;28;20033;-79
2022/03/21 08:47:50;;;;;;;47.40;36.03;;;;;;;9.34;65.39;103253.28;5073060;28;20082;-75
2022/03/21 08:50:15;;;;;;;51.33;36.33;;;;;;;10.22;63.92;103256.94;5072918;28;20037;-79
2022/03/21 08:52:41;;;;;;;47.88;35.67;;;;;;;10.89;59.82;103262.41;5073228;28;20035;-77
2022/03/21 08:55:07;;;;;;;47.83;33.67;;;;;;;11.42;55.71;103257.75;5072816;28;20028;-80
2022/03/21 08:57:33;;;;;;;46.05;35.83;;;;;;;11.85;57.14;103253.59;5073364;28;20043;-77
2022/03/21 08:59:59;;;;;;;44.42;33.47;;;;;;;11.94;52.39;103264.66;5072825;28;20064;-79
2022/03/21 09:02:26;;;;;;;45.33;33.83;;;;;;;12.15;54.30;103264.31;5073106;28;20060;-76
2022/03/21 09:04:52;;;;;;;44.83;33.88;;;;;;;12.63;53.19;103262.34;5072547;28;20040;-77
2022/03/21 09:07:18;;;;;;;43.40;32.33;;;;;;;13.51;50.95;103264.03;5072895;28;20098;-76
2022/03/21 09:09:43;;;;;;;40.17;30.70;;;;;;;14.48;45.96;103254.91;5055068;28;20044;-77
2022/03/21 09:12:10;;;;;;;40.50;30.33;;;;;;;15.88;44.11;103253.91;5072968;28;20419;-80
2022/03/21 09:14:36;;;;;;;40.63;27.40;;;;;;;16.52;40.36;103254.34;5073094;28;20066;-77
2022/03/21 09:17:02;;;;;;;37.83;27.92;;;;;;;17.56;38.16;103256.91;5072634;28;20111;-82
2022/03/21 09:19:29;;;;;;;37.35;27.35;;;;;;;17.69;35.86;103259.41;5072676;28;20075;-79
2022/03/21 09:21:55;;;;;;;38.00;25.65;;;;;;;18.21;34.24;103251.50;5072525;28;20078;-79
2022/03/21 09:24:21;;;;;;;32.92;25.63;;;;;;;18.57;32.57;103255.59;5072702;28;20041;-79
2022/03/21 09:26:46;;;;;;;32.80;25.33;;;;;;;18.96;32.55;103245.00;5072384;28;20335;-79
2022/03/21 09:29:12;;;;;;;37.45;25.70;;;;;;;19.25;31.60;103248.78;5072436;28;20466;-76
2022/03/21 09:31:39;;;;;;;30.15;24.00;;;;;;;19.45;31.51;103247.84;5072223;28;20036;-78
2022/03/21 09:34:06;;;;;;;29.95;23.05;;;;;;;18.84;32.06;103238.81;5072771;28;20028;-78
2022/03/21 09:36:32;;;;;;;29.42;21.55;;;;;;;18.79;31.32;103246.44;5076419;28;20035;-83
2022/03/21 09:38:57;;;;;;;32.95;23.17;;;;;;;17.86;32.56;103248.09;5076320;28;20025;-81
2022/03/21 09:41:25;;;;;;;30.20;22.92;;;;;;;18.62;31.32;103249.78;5076529;28;20042;-80
2022/03/21 09:43:56;;;;;;;32.28;22.38;;;;;;;18.39;31.90;103243.69;5058165;28;20127;-79
2022/03/21 09:46:22;;;;;;;29.65;21.83;;;;;;;18.40;30.51;103243.56;5076243;28;20050;-80
2022/03/21 09:48:50;;;;;;;33.53;23.13;;;;;;;18.53;31.33;103245.22;5076084;28;20454;-79
2022/03/21 09:51:24;;;;;;;30.27;22.95;;;;;;;18.64;31.46;103242.41;5076530;28;20039;-78
2022/03/21 09:53:50;;;;;;;31.52;23.17;;;;;;;19.49;30.55;103248.41;5076112;28;20484;-80
2022/03/21 09:56:17;;;;;;;35.53;23.30;;;;;;;19.11;28.34;103248.19;5076040;28;20048;-80
2022/03/21 09:58:43;;;;;;;32.33;22.90;;;;;;;19.31;30.63;103245.53;5075785;28;20025;-77
2022/03/21 10:01:11;;;;;;;31.00;21.67;;;;;;;19.31;29.55;103242.84;5076071;28;20526;-78
2022/03/21 10:03:40;;;;;;;31.30;21.80;;;;;;;18.87;30.39;103239.56;5076209;28;20028;-77
2022/03/21 10:06:40;;;;;;;30.08;20.83;;;;;;;19.70;28.45;103238.31;5057341;28;20055;-77
2022/03/21 10:09:19;;;;;;;27.27;20.88;;;;;;;19.29;28.79;103240.28;5015777;28;20052;-78
2022/03/21 10:11:50;;;;;;;28.92;21.75;;;;;;;19.46;27.95;103227.09;5076124;28;20032;-77
2022/03/21 10:14:24;;;;;;;31.15;21.60;;;;;;;20.28;28.42;103235.78;5075958;28;20039;-78
2022/03/21 10:16:58;;;;;;;32.20;21.08;;;;;;;20.41;27.73;103230.91;5075482;28;20037;-78
2022/03/21 10:19:24;;;;;;;26.40;20.48;;;;;;;20.78;26.63;103235.50;5075933;28;20040;-78
2022/03/21 10:22:00;;;;;;;27.98;20.45;;;;;;;20.63;26.71;103232.41;5075607;28;20029;-78
2022/03/21 10:24:25;;;;;;;28.20;19.73;;;;;;;20.64;25.70;103228.69;5075555;28;20107;-77
2022/03/21 10:26:51;;;;;;;30.70;20.10;;;;;;;20.42;28.73;103229.88;5075441;28;20115;-78
2022/03/21 10:29:17;;;;;;;27.33;19.38;;;;;;;20.86;26.88;103227.47;5075511;28;20044;-77
2022/03/21 10:31:48;;;;;;;26.45;19.52;;;;;;;21.19;25.91;103237.88;5075413;28;20035;-77
2022/03/21 10:34:18;;;;;;;22.60;17.73;;;;;;;21.33;25.53;103233.78;5075291;28;20062;-78
2022/03/21 10:37:14;;;;;;;30.80;18.38;;;;;;;21.49;26.04;103239.38;5075243;28;20127;-78
2022/03/21 10:39:50;;;;;;;24.77;16.02;;;;;;;21.25;25.61;103229.97;5075423;28;20035;-74
2022/03/21 10:42:15;;;;;;;21.65;16.02;;;;;;;21.26;23.27;103234.38;5075213;28;20028;-80
2022/03/21 10:44:41;;;;;;;21.80;15.82;;;;;;;20.73;25.82;103230.53;5075107;28;20119;-77
2022/03/21 10:47:07;;;;;;;20.73;14.38;;;;;;;20.26;24.84;103235.91;5074381;28;20036;-76
2022/03/21 10:49:37;;;;;;;21.42;15.63;;;;;;;20.31;24.32;103235.47;5074856;28;20502;-73
2022/03/21 10:52:05;;;;;;;22.55;14.57;;;;;;;19.76;24.18;103230.66;5074598;28;20033;-73
2022/03/21 10:54:35;;;;;;;21.63;14.25;;;;;;;20.02;24.52;103225.53;5074710;28;20144;-73
2022/03/21 10:57:02;;;;;;;22.73;12.23;;;;;;;20.38;24.34;103226.63;5074512;28;20138;-76
2022/03/21 10:59:27;;;;;;;17.55;14.38;;;;;;;20.45;23.08;103226.88;5056784;28;20020;-71
2022/03/21 11:02:17;;;;;;;21.92;15.63;;;;;;;20.39;24.89;103220.25;5074579;28;20028;-72
2022/03/21 11:04:44;;;;;;;22.02;12.57;;;;;;;20.35;22.97;103221.53;5074492;28;20593;-71
2022/03/21 11:07:13;;;;;;;21.10;12.07;;;;;;;20.78;22.37;103221.97;5074890;28;20029;-69
2022/03/21 11:09:40;;;;;;;17.92;12.77;;;;;;;21.43;22.79;103223.72;5074563;28;20058;-72
2022/03/21 11:12:07;;;;;;;15.85;12.77;;;;;;;21.39;22.58;103216.91;5074608;28;20097;-71
2022/03/21 11:14:36;;;;;;;19.50;12.13;;;;;;;21.28;22.11;103220.69;5074732;28;20058;-72
2022/03/21 11:17:05;;;;;;;18.50;13.30;;;;;;;21.90;21.50;103218.13;5074537;28;20028;-74
2022/03/21 11:19:31;;;;;;;19.55;13.57;;;;;;;22.04;23.18;103210.44;5056628;28;20037;-73
2022/03/21 11:21:56;;;;;;;20.27;14.27;;;;;;;21.62;20.54;103211.94;5074681;28;20029;-74
2022/03/21 11:24:22;;;;;;;22.77;16.40;;;;;;;21.79;22.84;103211.06;5074200;28;20043;-77